Half Way, Missouri
Current Conditions -  °F | °C
As of 11:52 PM on Friday 19 Dec 2014 (Local Time) from KSGF Reporting Station
Overcast Overcast  
Wind Chill: 32°   Ceiling: 400
Heat Index: 37°   Visibility: 7mi
Dew Point: 36°   Wind: 7mph
Humidity: 96%   Direction: 170°S
Pressure: 30.19"   Gusts: NA
Location:  37.62°N, 93.24°W
Report Text: KSGF 200552Z 17006KT 7SM OVC004 03/02 A3019 RMK AO2 RAE31 SLP231 P0000 60000 T00280022 10039 20028 400440028 51004
Loading
Personal Weather Stations






























Interactive Weather Map New forecast layout! Learn more

10-Day Weather Forecast

Advertisements
Track Severe Weather on mobile